Preview of NWS' New Version of Forecast
This preview is not operational and should not be used for support decisions.

Terminal Aerodrome Forecast (TAF)

Issued by National Weather Service (NWS)

                            
194 
FTUS42 KKEY 251758
TAFEYW
TAF
KEYW 251758Z 2518/2618 12008G16KT P6SM SCT020
     FM260300 03006KT P6SM FEW020
     FM261000 36009KT P6SM SKC=